Time;durP1;ratioP1;P1;durP2;ratioP2;P2;SDS_P1;SDS_P2;PMS_P1;PMS_P2;Temp;Humidity;BMP_temperature;BMP_pressure;BME280_temperature;BME280_humidity;BME280_pressure;Samples;Min_cycle;Max_cycle;Signal;HPM_P1;HPM_P2
2023/05/10 00:04:28;;;;;;;;;;;;;;;21.35;48.25;95077.63;10242835;28;1975;-64
2023/05/10 00:09:28;;;;;;;;;;;;;;;21.33;48.17;95074.50;10235894;28;1999;-63
2023/05/10 00:14:28;;;;;;;;;;;;;;;21.33;48.03;95083.16;10244493;28;1911;-64
2023/05/10 00:19:29;;;;;;;;;;;;;;;21.34;48.15;95073.41;10240436;28;2026;-64
2023/05/10 00:24:29;;;;;;;;;;;;;;;21.33;48.03;95067.34;10238898;28;1987;-64
2023/05/10 00:29:29;;;;;;;;;;;;;;;21.33;48.34;95072.63;10237428;28;1953;-64
2023/05/10 00:34:30;;;;;;;;;;;;;;;21.32;48.08;95063.16;10240451;28;2026;-64
2023/05/10 00:39:30;;;;;;;;;;;;;;;21.33;48.27;95064.72;10227254;28;2132;-61
2023/05/10 00:44:30;;;;;;;;;;;;;;;21.30;48.11;95056.63;10240199;28;1938;-62
2023/05/10 00:49:31;;;;;;;;;;;;;;;21.32;47.91;95054.47;10240928;28;1941;-62
2023/05/10 00:54:31;;;;;;;;;;;;;;;21.32;47.95;95054.47;10248975;28;1918;-62
2023/05/10 00:59:32;;;;;;;;;;;;;;;21.31;48.07;95051.03;10243511;28;4910;-62
2023/05/10 01:04:32;;;;;;;;;;;;;;;21.31;47.96;95056.31;10244080;28;2064;-62
2023/05/10 01:09:32;;;;;;;;;;;;;;;21.31;47.77;95052.94;10239475;28;1988;-62
2023/05/10 01:14:33;;;;;;;;;;;;;;;21.32;47.75;95057.09;10245817;28;1983;-62
2023/05/10 01:19:34;;;;;;;;;;;;;;;21.30;47.90;95056.63;10245430;28;1909;-62
2023/05/10 01:24:37;;;;;;;;;;;;;;;21.31;47.62;95052.94;10241381;28;1948;-63
2023/05/10 01:29:47;;;;;;;;;;;;;;;21.30;47.63;95053.97;10239710;28;2182;-62
2023/05/10 01:34:49;;;;;;;;;;;;;;;21.30;47.75;95048.72;10242288;28;1995;-62
2023/05/10 01:39:52;;;;;;;;;;;;;;;21.30;47.70;95051.34;10243443;28;2002;-62
2023/05/10 01:45:04;;;;;;;;;;;;;;;21.29;47.63;95049.81;10237463;28;2044;-62
2023/05/10 01:50:05;;;;;;;;;;;;;;;21.30;47.40;95046.88;10235150;28;1930;-62
2023/05/10 01:55:06;;;;;;;;;;;;;;;21.28;47.44;95053.50;10238408;28;1985;-62
2023/05/10 02:00:06;;;;;;;;;;;;;;;21.29;47.59;95049.81;10239251;28;5102;-61
2023/05/10 02:05:07;;;;;;;;;;;;;;;21.30;47.39;95056.63;10234845;28;2077;-62
2023/05/10 02:10:07;;;;;;;;;;;;;;;21.30;47.36;95051.34;10246964;28;1936;-62
2023/05/10 02:15:08;;;;;;;;;;;;;;;21.28;47.33;95051.66;10246329;28;2106;-62
2023/05/10 02:20:08;;;;;;;;;;;;;;;21.27;47.36;95052.72;10244317;28;1898;-62
2023/05/10 02:25:09;;;;;;;;;;;;;;;21.29;47.35;95049.81;10242662;28;1987;-62
2023/05/10 02:30:09;;;;;;;;;;;;;;;21.28;47.22;95053.50;10246469;28;2036;-62
2023/05/10 02:35:09;;;;;;;;;;;;;;;21.27;47.40;95057.22;10244588;28;2256;-62
2023/05/10 02:40:10;;;;;;;;;;;;;;;21.28;47.37;95048.22;10247221;28;1884;-62
2023/05/10 02:45:11;;;;;;;;;;;;;;;21.26;47.44;95051.16;10251421;28;1850;-62
2023/05/10 02:50:12;;;;;;;;;;;;;;;21.28;47.08;95056.13;10244600;28;1961;-62
2023/05/10 02:55:13;;;;;;;;;;;;;;;21.26;47.15;95047.75;10244142;29;1963;-62
2023/05/10 03:00:13;;;;;;;;;;;;;;;21.27;47.16;95046.69;10247497;28;5053;-62
2023/05/10 03:05:13;;;;;;;;;;;;;;;21.26;47.02;95053.00;10245706;28;1909;-62
2023/05/10 03:10:13;;;;;;;;;;;;;;;21.26;47.33;95055.66;10245585;28;1781;-62
2023/05/10 03:15:32;;;;;;;;;;;;;;;21.26;46.98;95053.00;10247697;28;1918;-62
2023/05/10 03:20:37;;;;;;;;;;;;;;;21.26;47.00;95063.56;10244898;28;1903;-62
2023/05/10 03:25:37;;;;;;;;;;;;;;;21.25;47.24;95070.69;10243673;28;2020;-62
2023/05/10 03:30:37;;;;;;;;;;;;;;;21.25;47.03;95069.88;10245061;28;1981;-62
2023/05/10 03:35:37;;;;;;;;;;;;;;;21.22;47.10;95073.91;10240556;28;1948;-62
2023/05/10 03:40:38;;;;;;;;;;;;;;;21.24;47.25;95071.75;10244492;28;1903;-62
2023/05/10 03:45:38;;;;;;;;;;;;;;;21.25;46.98;95075.16;10248510;28;1825;-62
2023/05/10 03:50:39;;;;;;;;;;;;;;;21.24;46.86;95087.59;10247396;28;1902;-62
2023/05/10 03:55:39;;;;;;;;;;;;;;;21.25;46.85;95090.97;10247544;28;4868;-62
2023/05/10 04:00:43;;;;;;;;;;;;;;;21.24;47.13;95092.06;10247507;28;1921;-62
2023/05/10 04:05:43;;;;;;;;;;;;;;;21.25;46.87;95101.53;10240699;28;1970;-63
2023/05/10 04:10:44;;;;;;;;;;;;;;;21.24;47.06;95097.34;10244128;28;1858;-62
2023/05/10 04:15:44;;;;;;;;;;;;;;;21.23;46.92;95096.53;10244122;28;1976;-62
2023/05/10 04:20:44;;;;;;;;;;;;;;;21.24;47.22;95102.59;10242780;28;2010;-62
2023/05/10 04:25:45;;;;;;;;;;;;;;;21.23;47.01;95101.03;10244944;28;1953;-62
2023/05/10 04:30:45;;;;;;;;;;;;;;;21.23;46.95;95101.03;10242713;28;2150;-62
2023/05/10 04:35:45;;;;;;;;;;;;;;;21.23;46.99;95101.81;10240946;28;2017;-62
2023/05/10 04:40:46;;;;;;;;;;;;;;;21.21;47.09;95098.69;10234247;28;1937;-63
2023/05/10 04:45:46;;;;;;;;;;;;;;;21.23;46.97;95106.31;10233444;28;1909;-63
2023/05/10 04:50:46;;;;;;;;;;;;;;;21.22;46.93;95102.13;10240199;28;2057;-63
2023/05/10 04:55:47;;;;;;;;;;;;;;;21.21;46.95;95109.25;10238650;28;5023;-63
2023/05/10 05:00:48;;;;;;;;;;;;;;;21.21;47.06;95111.09;10243539;28;1841;-61
2023/05/10 05:05:48;;;;;;;;;;;;;;;21.20;46.90;95117.44;10240496;28;1957;-63
2023/05/10 05:10:50;;;;;;;;;;;;;;;21.20;46.89;95128.78;10240058;28;2114;-63
2023/05/10 05:15:50;;;;;;;;;;;;;;;21.21;46.80;95137.44;10240194;28;2170;-63
2023/05/10 05:20:50;;;;;;;;;;;;;;;21.21;46.96;95147.97;10239434;28;1913;-63
2023/05/10 05:25:53;;;;;;;;;;;;;;;21.22;46.86;95149.56;10238173;28;2096;-63
2023/05/10 05:30:53;;;;;;;;;;;;;;;21.21;46.77;95150.63;10237356;29;2041;-62
2023/05/10 05:35:54;;;;;;;;;;;;;;;21.21;46.69;95164.59;10237433;28;1910;-63
2023/05/10 05:40:54;;;;;;;;;;;;;;;21.20;46.60;95168.31;10235863;28;1862;-63
2023/05/10 05:45:54;;;;;;;;;;;;;;;21.20;46.88;95170.16;10238281;28;2019;-62
2023/05/10 05:50:56;;;;;;;;;;;;;;;21.20;46.68;95176.22;10234964;28;1929;-62
2023/05/10 05:55:57;;;;;;;;;;;;;;;21.20;46.65;95183.34;10241447;28;5055;-62
2023/05/10 06:00:57;;;;;;;;;;;;;;;21.20;46.90;95173.59;10238445;28;1929;-62
2023/05/10 06:05:58;;;;;;;;;;;;;;;21.20;46.67;95192.03;10240076;28;1997;-62
2023/05/10 06:10:58;;;;;;;;;;;;;;;21.20;46.70;95194.66;10238313;28;2225;-62
2023/05/10 06:15:58;;;;;;;;;;;;;;;21.20;46.87;95207.06;10235670;28;2005;-64
2023/05/10 06:20:58;;;;;;;;;;;;;;;21.19;46.61;95202.84;10238473;28;1914;-63
2023/05/10 06:25:59;;;;;;;;;;;;;;;21.20;46.56;95214.97;10237125;28;1973;-64
2023/05/10 06:30:59;;;;;;;;;;;;;;;21.19;46.75;95223.94;10236734;28;1937;-64
2023/05/10 06:35:59;;;;;;;;;;;;;;;21.20;46.91;95228.16;10232243;28;1920;-64
2023/05/10 06:41:00;;;;;;;;;;;;;;;21.20;46.79;95225.50;10232911;28;1874;-63
2023/05/10 06:46:00;;;;;;;;;;;;;;;21.20;46.75;95225.50;10235586;28;1951;-68
2023/05/10 06:51:01;;;;;;;;;;;;;;;21.21;46.99;95227.06;10225084;28;2047;-65
2023/05/10 06:56:02;;;;;;;;;;;;;;;21.21;47.10;95230.47;10227614;28;4990;-66
2023/05/10 07:01:03;;;;;;;;;;;;;;;21.22;47.01;95226.00;10228144;28;2036;-65
2023/05/10 07:06:04;;;;;;;;;;;;;;;21.23;46.89;95230.19;10232625;28;2185;-66
2023/05/10 07:11:04;;;;;;;;;;;;;;;21.22;47.10;95239.19;10238024;28;2050;-65
2023/05/10 07:16:06;;;;;;;;;;;;;;;21.20;46.84;95231.56;10227271;28;1961;-64
2023/05/10 07:21:06;;;;;;;;;;;;;;;21.22;47.10;95245.25;10225394;28;1901;-65
2023/05/10 07:26:06;;;;;;;;;;;;;;;21.24;47.00;95243.09;10230235;28;1905;-61
2023/05/10 07:31:07;;;;;;;;;;;;;;;21.23;47.24;95244.16;10228269;28;1850;-64
2023/05/10 07:36:07;;;;;;;;;;;;;;;21.25;47.08;95239.38;10227349;28;2138;-64
2023/05/10 07:41:07;;;;;;;;;;;;;;;21.26;47.05;95240.16;10223724;28;1902;-62
2023/05/10 07:46:09;;;;;;;;;;;;;;;21.26;47.17;95245.44;10225939;28;1895;-65
2023/05/10 07:51:10;;;;;;;;;;;;;;;21.26;47.39;95245.44;10208132;28;2008;-64
2023/05/10 07:56:29;;;;;;;;;;;;;;;21.28;47.27;95253.84;10226723;28;4931;-64
2023/05/10 08:01:30;;;;;;;;;;;;;;;21.29;47.19;95252.78;10224040;28;1968;-66
2023/05/10 08:06:30;;;;;;;;;;;;;;;21.29;47.12;95243.00;10222606;28;2038;-68
2023/05/10 08:11:30;;;;;;;;;;;;;;;21.30;47.28;95252.50;10228021;28;1966;-67
2023/05/10 08:16:32;;;;;;;;;;;;;;;21.31;47.32;95255.91;10226424;28;1918;-67
2023/05/10 08:21:32;;;;;;;;;;;;;;;21.30;47.40;95260.41;10220202;28;1996;-67
2023/05/10 08:26:32;;;;;;;;;;;;;;;21.32;47.51;95254.81;10226505;28;1813;-66
2023/05/10 08:31:32;;;;;;;;;;;;;;;21.32;47.69;95254.81;10226334;28;1935;-68
2023/05/10 08:36:33;;;;;;;;;;;;;;;21.32;47.45;95262.72;10223427;28;2040;-67
2023/05/10 08:41:33;;;;;;;;;;;;;;;21.32;47.25;95266.16;10225386;28;1908;-66
2023/05/10 08:46:35;;;;;;;;;;;;;;;21.33;47.43;95266.94;10226732;28;2009;-65
2023/05/10 08:51:36;;;;;;;;;;;;;;;21.34;47.39;95268.50;10228657;28;1834;-67
2023/05/10 08:56:36;;;;;;;;;;;;;;;21.32;47.63;95263.53;10226026;28;5295;-68
2023/05/10 09:01:36;;;;;;;;;;;;;;;21.32;47.48;95271.44;10228595;28;1944;-67
2023/05/10 09:06:37;;;;;;;;;;;;;;;21.32;47.45;95270.63;10226248;28;1858;-64
2023/05/10 09:11:37;;;;;;;;;;;;;;;21.34;47.36;95268.50;10223574;28;1865;-65
2023/05/10 09:16:37;;;;;;;;;;;;;;;21.34;47.18;95266.66;10225134;28;2086;-63
2023/05/10 09:21:40;;;;;;;;;;;;;;;21.34;47.60;95263.22;10225081;28;1972;-67
2023/05/10 09:26:46;;;;;;;;;;;;;;;21.35;47.30;95272.72;10223655;28;1960;-65
2023/05/10 09:31:47;;;;;;;;;;;;;;;21.35;47.25;95264.81;10223747;28;1910;-65
2023/05/10 09:36:54;;;;;;;;;;;;;;;21.36;47.43;95261.88;10226600;28;2017;-66
2023/05/10 09:41:54;;;;;;;;;;;;;;;21.35;47.68;95255.03;10221163;28;2051;-65
2023/05/10 09:46:54;;;;;;;;;;;;;;;21.35;47.25;95257.66;10226615;28;1830;-67
2023/05/10 09:51:59;;;;;;;;;;;;;;;21.36;47.37;95258.44;10223897;28;1947;-65
2023/05/10 09:57:00;;;;;;;;;;;;;;;21.37;47.34;95252.13;10225712;28;4844;-66
2023/05/10 10:02:00;;;;;;;;;;;;;;;21.37;47.40;95249.47;10218753;28;2019;-65
2023/05/10 10:07:01;;;;;;;;;;;;;;;21.37;47.26;95246.84;10223185;28;1910;-65
2023/05/10 10:12:02;;;;;;;;;;;;;;;21.37;47.65;95237.06;10219024;28;1989;-67
2023/05/10 10:17:02;;;;;;;;;;;;;;;21.38;47.35;95249.19;10218874;28;2008;-64
2023/05/10 10:22:02;;;;;;;;;;;;;;;21.38;47.51;95248.38;10214646;28;1905;-66
2023/05/10 10:27:13;;;;;;;;;;;;;;;21.37;47.37;95247.59;10222078;28;1984;-68
2023/05/10 10:32:29;;;;;;;;;;;;;;;21.39;47.49;95249.97;10225698;28;2018;-66
2023/05/10 10:37:41;;;;;;;;;;;;;;;21.39;47.37;95247.34;10226751;28;1957;-64
2023/05/10 10:42:44;;;;;;;;;;;;;;;21.42;47.59;95241.47;10226937;28;1948;-66
2023/05/10 10:47:44;;;;;;;;;;;;;;;21.42;47.88;95239.63;10233489;28;1952;-64
2023/05/10 10:52:45;;;;;;;;;;;;;;;21.44;47.69;95236.69;10235069;28;2084;-67
2023/05/10 10:57:49;;;;;;;;;;;;;;;21.45;47.86;95243.53;10233970;28;4460;-68
2023/05/10 11:02:51;;;;;;;;;;;;;;;21.45;47.76;95239.00;10229794;28;1888;-68
2023/05/10 11:07:52;;;;;;;;;;;;;;;21.46;47.83;95237.16;10224416;28;2118;-67
2023/05/10 11:13:02;;;;;;;;;;;;;;;21.45;47.82;95233.75;10226562;28;1938;-68
2023/05/10 11:18:22;;;;;;;;;;;;;;;21.46;47.89;95242.44;10225849;28;1907;-67
2023/05/10 11:23:23;;;;;;;;;;;;;;;21.44;48.10;95242.75;10227125;28;1856;-67
2023/05/10 11:28:23;;;;;;;;;;;;;;;21.45;48.29;95246.16;10224067;28;1875;-68
2023/05/10 11:33:23;;;;;;;;;;;;;;;21.44;47.85;95255.13;10227148;28;1876;-68
2023/05/10 11:38:23;;;;;;;;;;;;;;;21.44;48.17;95255.13;10226786;28;1915;-68
2023/05/10 11:43:25;;;;;;;;;;;;;;;21.44;47.70;95263.06;10228943;28;1898;-68
2023/05/10 11:48:25;;;;;;;;;;;;;;;21.43;47.58;95272.03;10225472;28;2029;-68
2023/05/10 11:53:26;;;;;;;;;;;;;;;21.41;47.72;95276.81;10226452;28;1832;-68
2023/05/10 11:58:26;;;;;;;;;;;;;;;21.41;47.78;95280.22;10239544;28;4408;-68
2023/05/10 12:03:27;;;;;;;;;;;;;;;21.39;47.55;95282.38;10235609;28;2018;-68
2023/05/10 12:08:27;;;;;;;;;;;;;;;21.39;47.65;95286.88;10238759;28;1823;-68
2023/05/10 12:13:28;;;;;;;;;;;;;;;21.38;47.47;95296.63;10239616;28;1895;-68
2023/05/10 12:18:28;;;;;;;;;;;;;;;21.38;47.26;95304.53;10234143;28;1980;-65
2023/05/10 12:23:28;;;;;;;;;;;;;;;21.39;47.46;95314.00;10214291;28;2144;-71
2023/05/10 12:28:29;;;;;;;;;;;;;;;21.37;47.72;95318.78;10230713;29;1972;-67
2023/05/10 12:33:39;;;;;;;;;;;;;;;21.36;47.37;95329.63;10232203;28;1839;-67
2023/05/10 12:38:42;;;;;;;;;;;;;;;21.37;47.55;95339.13;10222830;28;1903;-67
2023/05/10 12:43:43;;;;;;;;;;;;;;;21.37;47.54;95341.75;10229010;28;1938;-67
2023/05/10 12:48:43;;;;;;;;;;;;;;;21.35;47.65;95338.63;10240408;28;2233;-68
2023/05/10 12:53:45;;;;;;;;;;;;;;;21.34;47.37;95331.78;10242187;28;1879;-68
2023/05/10 12:58:48;;;;;;;;;;;;;;;21.33;47.56;95333.63;10244229;28;4509;-68
2023/05/10 13:03:49;;;;;;;;;;;;;;;21.36;47.54;95340.19;10240712;28;2017;-68
2023/05/10 13:08:49;;;;;;;;;;;;;;;21.35;47.42;95346.53;10235696;28;1809;-68
2023/05/10 13:13:49;;;;;;;;;;;;;;;21.34;47.49;95353.66;10241622;28;2243;-67
2023/05/10 13:18:50;;;;;;;;;;;;;;;21.33;47.51;95349.44;10242830;28;1910;-68
2023/05/10 13:23:50;;;;;;;;;;;;;;;21.34;47.38;95342.31;10241717;28;1842;-70
2023/05/10 13:28:51;;;;;;;;;;;;;;;21.33;47.34;95349.44;10226432;28;1832;-69
2023/05/10 13:33:51;;;;;;;;;;;;;;;21.34;47.44;95347.59;10230493;28;1666;-69
2023/05/10 13:38:52;;;;;;;;;;;;;;;21.33;47.21;95346.81;10230999;28;1973;-68
2023/05/10 13:43:52;;;;;;;;;;;;;;;21.32;47.59;95349.72;10226618;28;2060;-71
2023/05/10 13:48:53;;;;;;;;;;;;;;;21.32;47.15;95349.72;10225627;28;1836;-68
2023/05/10 13:53:53;;;;;;;;;;;;;;;21.32;47.30;95344.47;10224716;28;1839;-68
2023/05/10 13:58:53;;;;;;;;;;;;;;;21.33;47.52;95346.03;10231827;28;4456;-69
2023/05/10 14:03:53;;;;;;;;;;;;;;;21.33;47.31;95343.41;10225288;28;1800;-68
2023/05/10 14:08:54;;;;;;;;;;;;;;;21.32;47.32;95339.19;10226104;28;1820;-68
2023/05/10 14:13:54;;;;;;;;;;;;;;;21.31;47.29;95337.63;10227182;28;1871;-67
2023/05/10 14:18:54;;;;;;;;;;;;;;;21.30;47.39;95342.13;10241229;28;1918;-68
2023/05/10 14:23:55;;;;;;;;;;;;;;;21.32;47.12;95341.81;10240351;28;1868;-68
2023/05/10 14:28:55;;;;;;;;;;;;;;;21.30;47.42;95336.84;10237519;28;1823;-68
2023/05/10 14:33:56;;;;;;;;;;;;;;;21.30;47.14;95341.31;10238375;28;1867;-68
2023/05/10 14:38:57;;;;;;;;;;;;;;;21.30;47.35;95349.22;10237569;28;1914;-67
2023/05/10 14:43:57;;;;;;;;;;;;;;;21.30;47.39;95355.31;10243078;28;1770;-67
2023/05/10 14:48:57;;;;;;;;;;;;;;;21.29;47.32;95351.09;10238640;28;1883;-67
2023/05/10 14:53:57;;;;;;;;;;;;;;;21.30;47.19;95346.59;10240159;28;2035;-69
2023/05/10 14:58:59;;;;;;;;;;;;;;;21.29;47.27;95347.69;10216730;28;4434;-69
2023/05/10 15:03:59;;;;;;;;;;;;;;;21.29;47.11;95352.97;10236986;28;1859;-68
2023/05/10 15:08:59;;;;;;;;;;;;;;;21.26;47.01;95351.66;10232741;28;1856;-70
2023/05/10 15:14:00;;;;;;;;;;;;;;;21.28;47.04;95360.06;10237973;28;2078;-67
2023/05/10 15:19:00;;;;;;;;;;;;;;;21.26;47.01;95362.22;10244233;28;1995;-67
2023/05/10 15:24:01;;;;;;;;;;;;;;;21.26;47.07;95366.69;10248948;28;1832;-67
2023/05/10 15:29:01;;;;;;;;;;;;;;;21.27;47.52;95363.00;10243204;28;1967;-67
2023/05/10 15:34:01;;;;;;;;;;;;;;;21.26;47.51;95374.59;10240282;28;2040;-67
2023/05/10 15:39:02;;;;;;;;;;;;;;;21.26;47.70;95377.25;10242982;28;1985;-68
2023/05/10 15:44:03;;;;;;;;;;;;;;;21.27;47.61;95384.84;10244336;28;1879;-68
2023/05/10 15:49:03;;;;;;;;;;;;;;;21.28;47.59;95386.44;10239683;28;1886;-67
2023/05/10 15:54:06;;;;;;;;;;;;;;;21.28;47.59;95391.72;10239812;28;2031;-67
2023/05/10 15:59:07;;;;;;;;;;;;;;;21.29;47.76;95387.22;10238086;28;4480;-68
2023/05/10 16:04:07;;;;;;;;;;;;;;;21.31;48.43;95393.75;10240272;28;1902;-68
2023/05/10 16:09:09;;;;;;;;;;;;;;;21.32;49.21;95402.47;10240595;28;1829;-70
2023/05/10 16:14:09;;;;;;;;;;;;;;;21.33;49.94;95394.25;10241638;28;1878;-69
2023/05/10 16:19:09;;;;;;;;;;;;;;;21.36;50.19;95401.59;10246207;28;1907;-68
2023/05/10 16:24:10;;;;;;;;;;;;;;;21.36;50.34;95406.09;10241213;28;1948;-68
2023/05/10 16:29:10;;;;;;;;;;;;;;;21.37;50.14;95405.03;10242894;28;1962;-68
2023/05/10 16:34:10;;;;;;;;;;;;;;;21.37;50.13;95410.31;10241985;28;2036;-68
2023/05/10 16:39:11;;;;;;;;;;;;;;;21.38;50.58;95412.66;10237280;28;1899;-66
2023/05/10 16:44:11;;;;;;;;;;;;;;;21.37;50.10;95418.97;10238265;28;1894;-66
2023/05/10 16:49:11;;;;;;;;;;;;;;;21.38;50.52;95419.78;10237179;28;2041;-68
2023/05/10 16:54:11;;;;;;;;;;;;;;;21.38;50.27;95422.41;10235916;28;1848;-68
2023/05/10 16:59:12;;;;;;;;;;;;;;;21.38;50.47;95427.69;10240539;28;4499;-68
2023/05/10 17:04:13;;;;;;;;;;;;;;;21.36;49.33;95425.34;10241610;28;1909;-68
2023/05/10 17:09:13;;;;;;;;;;;;;;;21.36;49.58;95435.88;10237089;28;1902;-68
2023/05/10 17:14:13;;;;;;;;;;;;;;;21.36;49.52;95433.25;10240521;28;2083;-67
2023/05/10 17:19:13;;;;;;;;;;;;;;;21.35;49.27;95444.09;10240209;28;1991;-66
2023/05/10 17:24:14;;;;;;;;;;;;;;;21.35;48.95;95459.91;10237659;28;1880;-63
2023/05/10 17:29:15;;;;;;;;;;;;;;;21.37;49.62;95463.03;10246184;28;2023;-67
2023/05/10 17:34:15;;;;;;;;;;;;;;;21.40;50.38;95465.88;10240081;28;1870;-66
2023/05/10 17:39:15;;;;;;;;;;;;;;;21.42;50.33;95469.00;10230365;28;1928;-64
2023/05/10 17:44:15;;;;;;;;;;;;;;;21.45;50.51;95472.94;10239591;28;1845;-65
2023/05/10 17:49:16;;;;;;;;;;;;;;;21.46;50.44;95471.84;10231811;28;1871;-65
2023/05/10 17:54:16;;;;;;;;;;;;;;;21.46;50.08;95477.91;10231019;28;1884;-65
2023/05/10 17:59:17;;;;;;;;;;;;;;;21.46;49.92;95474.50;10235296;28;4323;-66
2023/05/10 18:04:17;;;;;;;;;;;;;;;21.47;49.56;95473.44;10235804;28;1983;-69
2023/05/10 18:09:19;;;;;;;;;;;;;;;21.47;49.70;95482.16;10231578;28;1923;-68
2023/05/10 18:14:21;;;;;;;;;;;;;;;21.48;49.31;95472.34;10232497;28;2073;-64
2023/05/10 18:19:23;;;;;;;;;;;;;;;21.47;49.09;95478.72;10236149;28;1903;-64
2023/05/10 18:24:24;;;;;;;;;;;;;;;21.41;48.11;95482.50;10233783;28;2096;-64
2023/05/10 18:29:24;;;;;;;;;;;;;;;21.42;48.21;95486.69;10233005;28;1883;-63
2023/05/10 18:34:24;;;;;;;;;;;;;;;21.37;47.43;95481.50;10232881;28;1918;-64
2023/05/10 18:39:24;;;;;;;;;;;;;;;21.36;47.30;95477.28;10230730;28;2060;-64
2023/05/10 18:44:25;;;;;;;;;;;;;;;21.33;47.03;95481.25;10236082;28;1849;-64
2023/05/10 18:49:26;;;;;;;;;;;;;;;21.34;47.65;95482.06;10239145;28;2153;-64
2023/05/10 18:54:26;;;;;;;;;;;;;;;21.36;47.75;95491.25;10248796;28;1972;-64
2023/05/10 18:59:26;;;;;;;;;;;;;;;21.37;48.17;95484.13;10237417;28;4432;-64
2023/05/10 19:04:27;;;;;;;;;;;;;;;21.39;48.16;95484.63;10242883;28;1914;-64
2023/05/10 19:09:27;;;;;;;;;;;;;;;21.42;48.24;95494.59;10240203;28;2067;-63
2023/05/10 19:14:28;;;;;;;;;;;;;;;21.42;48.54;95491.97;10235737;28;1960;-63
2023/05/10 19:19:28;;;;;;;;;;;;;;;21.43;48.61;95498.81;10237750;28;2454;-63
2023/05/10 19:24:28;;;;;;;;;;;;;;;21.42;48.35;95500.66;10242546;28;1940;-62
2023/05/10 19:29:28;;;;;;;;;;;;;;;21.42;48.39;95503.28;10239337;28;1901;-62
2023/05/10 19:34:29;;;;;;;;;;;;;;;21.42;48.50;95502.50;10243416;28;1973;-60
2023/05/10 19:39:31;;;;;;;;;;;;;;;21.42;48.42;95505.13;10244553;28;1912;-62
2023/05/10 19:44:31;;;;;;;;;;;;;;;21.43;48.45;95499.56;10244627;28;1871;-63
2023/05/10 19:49:32;;;;;;;;;;;;;;;21.44;48.57;95505.63;10244640;28;1769;-61
2023/05/10 19:54:32;;;;;;;;;;;;;;;21.43;48.53;95504.09;10244330;28;1973;-62
2023/05/10 19:59:32;;;;;;;;;;;;;;;21.41;48.33;95508.88;10246076;28;4598;-64
2023/05/10 20:04:32;;;;;;;;;;;;;;;21.41;48.42;95506.22;10236391;28;2035;-63
2023/05/10 20:09:33;;;;;;;;;;;;;;;21.39;48.44;95508.38;10238380;28;1890;-64
2023/05/10 20:14:33;;;;;;;;;;;;;;;21.37;48.44;95511.25;10241387;28;2007;-64
2023/05/10 20:19:33;;;;;;;;;;;;;;;21.36;48.53;95514.97;10241002;28;1877;-64
2023/05/10 20:24:34;;;;;;;;;;;;;;;21.35;48.47;95513.41;10244276;28;1891;-64
2023/05/10 20:29:34;;;;;;;;;;;;;;;21.33;48.33;95515.53;10235845;28;1911;-64
2023/05/10 20:34:34;;;;;;;;;;;;;;;21.33;48.25;95517.41;10242529;28;1899;-64
2023/05/10 20:39:34;;;;;;;;;;;;;;;21.31;48.41;95516.91;10232903;28;1919;-64
2023/05/10 20:44:35;;;;;;;;;;;;;;;21.30;48.41;95510.06;10243137;28;1899;-63
2023/05/10 20:49:36;;;;;;;;;;;;;;;21.28;48.41;95510.34;10236158;28;1936;-64
2023/05/10 20:54:37;;;;;;;;;;;;;;;21.29;48.27;95508.50;10235781;28;1914;-64
2023/05/10 20:59:37;;;;;;;;;;;;;;;21.26;48.63;95499.28;10239237;28;4313;-64
2023/05/10 21:04:37;;;;;;;;;;;;;;;21.26;48.32;95498.50;10240495;28;1943;-64
2023/05/10 21:09:37;;;;;;;;;;;;;;;21.23;48.24;95494.56;10239689;28;1994;-63
2023/05/10 21:14:38;;;;;;;;;;;;;;;21.23;48.30;95491.16;10238555;28;2053;-63
2023/05/10 21:19:38;;;;;;;;;;;;;;;21.21;48.29;95486.16;10232483;28;2009;-63
2023/05/10 21:24:38;;;;;;;;;;;;;;;21.21;48.42;95482.75;10244216;28;1936;-64
2023/05/10 21:29:38;;;;;;;;;;;;;;;21.20;48.19;95476.72;10238149;28;1852;-64
2023/05/10 21:34:39;;;;;;;;;;;;;;;21.19;48.25;95471.69;10239427;28;1996;-64
2023/05/10 21:39:39;;;;;;;;;;;;;;;21.18;48.28;95481.47;10237078;28;1946;-64
2023/05/10 21:44:39;;;;;;;;;;;;;;;21.18;48.26;95470.94;10241294;28;1835;-63
2023/05/10 21:49:39;;;;;;;;;;;;;;;21.19;48.40;95467.22;10242473;28;1883;-63
2023/05/10 21:54:40;;;;;;;;;;;;;;;21.18;48.05;95470.16;10240246;28;1907;-64
2023/05/10 21:59:41;;;;;;;;;;;;;;;21.17;48.09;95469.34;10235964;28;4405;-64
2023/05/10 22:04:41;;;;;;;;;;;;;;;21.17;48.05;95471.19;10235652;28;1932;-65
2023/05/10 22:09:41;;;;;;;;;;;;;;;21.16;47.85;95469.66;10232279;28;1933;-64
2023/05/10 22:14:42;;;;;;;;;;;;;;;21.15;48.06;95470.69;10235985;28;1893;-64
2023/05/10 22:19:42;;;;;;;;;;;;;;;21.14;48.08;95464.66;10238621;28;1957;-64
2023/05/10 22:24:42;;;;;;;;;;;;;;;21.14;48.01;95463.88;10239463;28;1863;-64
2023/05/10 22:29:45;;;;;;;;;;;;;;;21.12;47.73;95469.44;10243312;28;1864;-64
2023/05/10 22:34:45;;;;;;;;;;;;;;;21.12;47.62;95472.06;10248605;28;1919;-64
2023/05/10 22:39:45;;;;;;;;;;;;;;;21.11;47.74;95467.06;10243750;28;2346;-64
2023/05/10 22:44:46;;;;;;;;;;;;;;;21.10;47.56;95463.66;10245575;28;1896;-64
2023/05/10 22:49:46;;;;;;;;;;;;;;;21.09;47.52;95467.34;10241475;28;1995;-64
2023/05/10 22:54:46;;;;;;;;;;;;;;;21.09;47.29;95464.72;10248710;28;1950;-64
2023/05/10 22:59:47;;;;;;;;;;;;;;;21.08;47.70;95465.00;10241919;28;1881;-64
2023/05/10 23:04:48;;;;;;;;;;;;;;;21.06;47.55;95460.78;10241527;28;1931;-64
2023/05/10 23:09:48;;;;;;;;;;;;;;;21.05;47.52;95453.97;10244775;28;2047;-63
2023/05/10 23:14:49;;;;;;;;;;;;;;;21.05;47.66;95455.81;10244997;28;1927;-64
2023/05/10 23:19:49;;;;;;;;;;;;;;;21.03;47.20;95458.72;10241568;28;1876;-64
2023/05/10 23:24:50;;;;;;;;;;;;;;;21.03;47.56;95464.00;10248394;28;1836;-64
2023/05/10 23:29:54;;;;;;;;;;;;;;;21.02;47.25;95462.41;10244503;28;1894;-64
2023/05/10 23:34:54;;;;;;;;;;;;;;;21.01;47.22;95466.09;10243033;29;1981;-64
2023/05/10 23:39:54;;;;;;;;;;;;;;;21.01;47.14;95462.69;10241866;28;2046;-64
2023/05/10 23:44:55;;;;;;;;;;;;;;;21.00;47.04;95463.72;10244539;28;1824;-64
2023/05/10 23:49:55;;;;;;;;;;;;;;;20.99;47.02;95473.50;10238658;28;1911;-64
2023/05/10 23:54:57;;;;;;;;;;;;;;;20.99;46.96;95464.81;10244925;28;1907;-64
2023/05/10 23:59:57;;;;;;;;;;;;;;;20.96;46.97;95460.88;10242065;28;5038;-64
